Terminal Aerodrome Forecast
Issued by NWS Green Bay, WI

Home | Current Version | Previous Version | Graphics & Text | Print | Product List | Glossary On
Versions: 1 2 3 4 5 6 7 8 9 10 11 12 13 14 15 16 17 18
000
FTUS43 KGRB 201749
TAFGRB
TAF
KGRB 201749Z 2018/2118 21009G15KT P6SM BKN200
     FM202000 20009G14KT P6SM SCT035
     FM202300 20007KT P6SM SCT045
     FM210300 21004KT P6SM SCT060 BKN150
     FM211500 20004KT P6SM SCT050 BKN090=

USA.gov is the U.S. government's official web portal to all federal, state and local government web resources and services.